createdAt,value
2018-04-16T00:00:19.713Z,81.16
2018-04-16T00:01:19.735Z,80.87
2018-04-16T00:02:19.770Z,80.30
2018-04-16T00:03:19.786Z,80.97
2018-04-16T00:04:19.811Z,80.97
2018-04-16T00:05:19.836Z,81.54
2018-04-16T00:06:19.854Z,81.70
2018-04-16T00:07:19.882Z,82.75
2018-04-16T00:08:19.923Z,82.85
2018-04-16T00:09:19.929Z,82.18
2018-04-16T00:10:19.953Z,82.46
2018-04-16T00:11:19.973Z,82.27
2018-04-16T00:12:19.989Z,81.98
2018-04-16T00:13:20.019Z,82.37
2018-04-16T00:14:20.061Z,81.89
2018-04-16T00:15:20.084Z,81.89
2018-04-16T00:16:20.101Z,82.08
2018-04-16T00:17:20.190Z,81.60
2018-04-16T00:18:20.152Z,81.89
2018-04-16T00:19:20.169Z,82.08
2018-04-16T00:20:20.180Z,82.27
2018-04-16T00:21:20.210Z,81.60
2018-04-16T00:22:20.228Z,81.54
2018-04-16T00:23:20.256Z,81.70
2018-04-16T00:24:20.281Z,81.79
2018-04-16T00:25:20.303Z,82.37
2018-04-16T00:26:20.321Z,81.89
2018-04-16T00:27:20.367Z,81.51
2018-04-16T00:28:20.369Z,81.60
2018-04-16T00:29:20.433Z,81.84
2018-04-16T00:30:20.429Z,80.97
2018-04-16T00:31:20.462Z,81.70
2018-04-16T00:32:20.466Z,81.74
2018-04-16T00:33:20.492Z,81.70
2018-04-16T00:34:20.517Z,81.60
2018-04-16T00:35:20.537Z,81.70
2018-04-16T00:36:20.554Z,81.51
2018-04-16T00:37:20.608Z,81.89
2018-04-16T00:38:20.606Z,81.98
2018-04-16T00:39:20.632Z,81.79
2018-04-16T00:40:20.649Z,81.79
2018-04-16T00:41:20.674Z,81.70
2018-04-16T00:42:20.694Z,82.37
2018-04-16T00:43:20.717Z,81.60
2018-04-16T00:44:20.741Z,82.27
2018-04-16T00:45:20.763Z,82.46
2018-04-16T00:46:20.787Z,81.89
2018-04-16T00:47:20.811Z,81.98
2018-04-16T00:48:20.840Z,82.56
2018-04-16T00:49:20.857Z,82.46
2018-04-16T00:50:20.885Z,82.75
2018-04-16T00:51:20.904Z,82.08
2018-04-16T00:52:20.931Z,82.08
2018-04-16T00:53:20.954Z,82.56
2018-04-16T00:54:20.974Z,81.60
2018-04-16T00:55:21.002Z,81.41
2018-04-16T00:56:21.032Z,81.51
2018-04-16T00:57:21.058Z,81.95
2018-04-16T00:58:21.071Z,82.56
2018-04-16T00:59:21.096Z,81.60
2018-04-16T01:00:21.137Z,81.79
2018-04-16T01:01:21.143Z,81.70
2018-04-16T01:02:21.161Z,82.27
2018-04-16T01:03:21.180Z,82.81
2018-04-16T01:04:21.216Z,82.27
2018-04-16T01:05:21.231Z,81.51
2018-04-16T01:06:21.324Z,81.70
2018-04-16T01:07:21.283Z,81.79
2018-04-16T01:08:21.297Z,81.31
2018-04-16T01:09:21.336Z,81.31
2018-04-16T01:10:21.354Z,81.60
2018-04-16T01:11:21.405Z,82.08
2018-04-16T01:12:21.392Z,81.12
2018-04-16T01:13:21.428Z,81.70
2018-04-16T01:14:21.447Z,81.22
2018-04-16T01:15:21.463Z,81.02
2018-04-16T01:16:21.484Z,81.70
2018-04-16T01:17:21.563Z,81.12
2018-04-16T01:18:21.543Z,80.64
2018-04-16T01:19:21.553Z,80.93
2018-04-16T01:20:21.577Z,81.41
2018-04-16T01:21:21.607Z,81.02
2018-04-16T01:22:21.621Z,81.51
2018-04-16T01:23:21.647Z,81.70
2018-04-16T01:24:21.672Z,81.46
2018-04-16T01:25:21.694Z,81.89
2018-04-16T01:26:21.720Z,81.41
2018-04-16T01:27:21.742Z,80.93
2018-04-16T01:28:21.772Z,81.56
2018-04-16T01:29:21.792Z,81.75
2018-04-16T01:30:21.810Z,81.51
2018-04-16T01:31:21.837Z,81.51
2018-04-16T01:32:21.865Z,81.98
2018-04-16T01:33:21.882Z,81.31
2018-04-16T01:34:21.905Z,81.31
2018-04-16T01:35:21.941Z,80.93
2018-04-16T01:36:21.960Z,81.12
2018-04-16T01:37:21.971Z,81.22
2018-04-16T01:38:22.001Z,81.31
2018-04-16T01:39:22.029Z,81.66
2018-04-16T01:40:22.045Z,81.56
2018-04-16T01:41:22.080Z,81.70
2018-04-16T01:42:22.087Z,81.70
2018-04-16T01:43:22.110Z,81.60
2018-04-16T01:44:22.143Z,81.02
2018-04-16T01:45:22.158Z,81.22
2018-04-16T01:46:22.182Z,81.75
2018-04-16T01:47:22.211Z,81.66
2018-04-16T01:48:22.249Z,82.04
2018-04-16T01:49:22.252Z,81.85
2018-04-16T01:50:22.279Z,81.95
2018-04-16T01:51:22.303Z,82.23
2018-04-16T01:52:22.321Z,82.23
2018-04-16T01:53:22.347Z,82.32
2018-04-16T01:54:22.366Z,82.08
2018-04-16T01:55:22.390Z,81.66
2018-04-16T01:56:22.409Z,81.66
2018-04-16T01:57:22.447Z,81.56
2018-04-16T01:58:22.463Z,81.56
2018-04-16T01:59:22.484Z,81.56
2018-04-16T02:00:22.507Z,81.56
2018-04-16T02:01:22.536Z,81.89
2018-04-16T02:02:22.553Z,81.66
2018-04-16T02:03:22.578Z,81.66
2018-04-16T02:04:22.600Z,81.85
2018-04-16T02:05:22.620Z,82.32
2018-04-16T02:06:22.653Z,81.70
2018-04-16T02:07:22.673Z,82.18
2018-04-16T02:08:22.686Z,81.89
2018-04-16T02:09:22.719Z,82.42
2018-04-16T02:10:22.737Z,82.14
2018-04-16T02:11:22.757Z,81.66
2018-04-16T02:12:22.781Z,82.81
2018-04-16T02:13:22.817Z,82.23
2018-04-16T02:14:22.826Z,81.95
2018-04-16T02:15:22.844Z,82.14
2018-04-16T02:16:22.876Z,82.32
2018-04-16T02:17:22.893Z,82.04
2018-04-16T02:18:22.921Z,81.95
2018-04-16T02:19:22.941Z,82.32
2018-04-16T02:20:22.959Z,82.71
2018-04-16T02:21:22.982Z,82.32
2018-04-16T02:22:23.010Z,83.00
2018-04-16T02:23:23.032Z,83.19
2018-04-16T02:24:23.062Z,83.25
2018-04-16T02:25:23.095Z,83.72
2018-04-16T02:26:23.102Z,84.11
2018-04-16T02:27:23.118Z,83.34
2018-04-16T02:28:23.169Z,84.78
2018-04-16T02:29:23.175Z,84.68
2018-04-16T02:30:23.195Z,85.06
2018-04-16T02:31:23.216Z,85.64
2018-04-16T02:32:23.250Z,84.68
2018-04-16T02:33:23.260Z,84.97
2018-04-16T02:34:23.286Z,84.88
2018-04-16T02:35:23.314Z,83.67
2018-04-16T02:36:23.337Z,83.00
2018-04-16T02:37:23.359Z,82.71
2018-04-16T02:38:23.375Z,82.42
2018-04-16T02:39:23.406Z,82.62
2018-04-16T02:40:23.424Z,83.00
2018-04-16T02:41:23.518Z,83.44
2018-04-16T02:42:23.485Z,82.90
2018-04-16T02:43:23.509Z,82.81
2018-04-16T02:44:23.517Z,83.00
2018-04-16T02:45:23.542Z,82.81
2018-04-16T02:46:23.565Z,83.00
2018-04-16T02:47:23.585Z,82.71
2018-04-16T02:48:23.632Z,83.72
2018-04-16T02:49:23.642Z,84.20
2018-04-16T02:50:23.656Z,84.01
2018-04-16T02:51:23.683Z,83.63
2018-04-16T02:52:23.697Z,83.72
2018-04-16T02:53:23.725Z,84.01
2018-04-16T02:54:23.739Z,83.92
2018-04-16T02:55:23.771Z,83.72
2018-04-16T02:56:23.790Z,83.53
2018-04-16T02:57:23.809Z,83.92
2018-04-16T02:58:23.833Z,83.19
2018-04-16T02:59:23.881Z,82.81
2018-04-16T03:00:23.881Z,82.23
2018-04-16T03:01:23.904Z,82.32
2018-04-16T03:02:23.930Z,82.81
2018-04-16T03:03:23.972Z,82.52
2018-04-16T03:04:23.986Z,82.81
2018-04-16T03:05:24.012Z,83.00
2018-04-16T03:06:24.017Z,82.62
2018-04-16T03:07:24.044Z,84.11
2018-04-16T03:08:24.060Z,83.92
2018-04-16T03:09:24.087Z,83.53
2018-04-16T03:10:24.186Z,83.72
2018-04-16T03:11:24.134Z,83.29
2018-04-16T03:12:24.162Z,83.00
2018-04-16T03:13:24.171Z,82.81
2018-04-16T03:14:24.193Z,82.81
2018-04-16T03:15:24.222Z,82.81
2018-04-16T03:16:24.240Z,83.09
2018-04-16T03:17:24.293Z,83.29
2018-04-16T03:18:24.309Z,83.58
2018-04-16T03:19:24.313Z,83.53
2018-04-16T03:20:24.337Z,84.11
2018-04-16T03:21:24.371Z,84.68
2018-04-16T03:22:24.377Z,85.06
2018-04-16T03:23:24.406Z,84.78
2018-04-16T03:24:24.429Z,85.50
2018-04-16T03:25:24.451Z,86.17
2018-04-16T03:26:24.466Z,85.54
2018-04-16T03:27:24.524Z,86.08
2018-04-16T03:28:24.520Z,86.41
2018-04-16T03:29:24.536Z,85.64
2018-04-16T03:30:24.566Z,85.25
2018-04-16T03:31:24.582Z,86.12
2018-04-16T03:32:24.608Z,86.12
2018-04-16T03:33:24.634Z,86.84
2018-04-16T03:34:24.649Z,87.41
2018-04-16T03:35:24.672Z,86.79
2018-04-16T03:36:24.697Z,86.02
2018-04-16T03:37:24.736Z,86.27
2018-04-16T03:38:24.754Z,86.74
2018-04-16T03:39:24.765Z,86.55
2018-04-16T03:40:24.826Z,86.55
2018-04-16T03:41:24.819Z,86.74
2018-04-16T03:42:24.829Z,86.31
2018-04-16T03:43:24.852Z,85.54
2018-04-16T03:44:24.874Z,86.50
2018-04-16T03:45:24.903Z,86.31
2018-04-16T03:46:24.923Z,86.21
2018-04-16T03:47:24.959Z,86.46
2018-04-16T03:48:24.964Z,86.65
2018-04-16T03:49:24.989Z,86.55
2018-04-16T03:50:25.012Z,86.94
2018-04-16T03:51:25.043Z,87.41
2018-04-16T03:52:25.055Z,86.55
2018-04-16T03:53:25.085Z,86.55
2018-04-16T03:54:25.115Z,87.23
2018-04-16T03:55:25.119Z,86.94
2018-04-16T03:56:25.149Z,86.02
2018-04-16T03:57:25.184Z,86.21
2018-04-16T03:58:25.199Z,85.64
2018-04-16T03:59:25.253Z,86.65
2018-04-16T04:00:25.244Z,86.84
2018-04-16T04:01:25.261Z,86.74
2018-04-16T04:02:25.277Z,86.12
2018-04-16T04:03:25.307Z,86.12
2018-04-16T04:04:25.325Z,85.64
2018-04-16T04:05:25.345Z,85.45
2018-04-16T04:06:25.403Z,85.64
2018-04-16T04:07:25.403Z,85.45
2018-04-16T04:08:25.418Z,85.64
2018-04-16T04:09:25.437Z,85.74
2018-04-16T04:10:25.462Z,86.31
2018-04-16T04:11:25.488Z,86.27
2018-04-16T04:12:25.500Z,86.02
2018-04-16T04:13:25.537Z,85.83
2018-04-16T04:14:25.609Z,85.50
2018-04-16T04:15:25.575Z,86.17
2018-04-16T04:16:25.589Z,86.94
2018-04-16T04:17:25.617Z,86.55
2018-04-16T04:18:25.637Z,86.17
2018-04-16T04:19:25.667Z,85.74
2018-04-16T04:20:25.686Z,85.64
2018-04-16T04:21:25.708Z,85.06
2018-04-16T04:22:25.732Z,85.93
2018-04-16T04:23:25.752Z,86.17
2018-04-16T04:24:25.768Z,86.74
2018-04-16T04:25:25.795Z,86.27
2018-04-16T04:26:25.818Z,85.98
2018-04-16T04:27:25.842Z,86.27
2018-04-16T04:28:25.860Z,86.27
2018-04-16T04:29:25.880Z,85.50
2018-04-16T04:30:25.914Z,85.69
2018-04-16T04:31:25.929Z,85.98
2018-04-16T04:32:25.958Z,86.94
2018-04-16T04:33:25.972Z,86.74
2018-04-16T04:34:25.998Z,86.55
2018-04-16T04:35:26.015Z,86.46
2018-04-16T04:36:26.041Z,86.36
2018-04-16T04:37:26.065Z,85.88
2018-04-16T04:38:26.086Z,86.08
2018-04-16T04:39:26.122Z,85.69
2018-04-16T04:40:26.133Z,85.60
2018-04-16T04:41:26.154Z,85.60
2018-04-16T04:42:26.181Z,85.98
2018-04-16T04:43:26.205Z,85.41
2018-04-16T04:44:26.227Z,85.60
2018-04-16T04:45:26.251Z,85.41
2018-04-16T04:46:26.275Z,86.08
2018-04-16T04:47:26.282Z,86.27
2018-04-16T04:48:26.315Z,85.79
2018-04-16T04:49:26.329Z,85.79
2018-04-16T04:50:26.350Z,85.79
2018-04-16T04:51:26.387Z,86.17
2018-04-16T04:52:26.401Z,85.88
2018-04-16T04:53:26.422Z,85.98
2018-04-16T04:54:26.449Z,86.80
2018-04-16T04:55:26.477Z,86.74
2018-04-16T04:56:26.498Z,85.50
2018-04-16T04:57:26.509Z,86.17
2018-04-16T04:58:26.540Z,86.08
2018-04-16T04:59:26.557Z,86.41
2018-04-16T05:00:26.576Z,87.27
2018-04-16T05:01:26.604Z,87.95
2018-04-16T05:02:26.623Z,87.76
2018-04-16T05:03:26.647Z,87.27
2018-04-16T05:04:26.665Z,86.84
2018-04-16T05:05:26.701Z,86.08
2018-04-16T05:06:26.742Z,85.60
2018-04-16T05:07:26.736Z,85.50
2018-04-16T05:08:26.769Z,85.50
2018-04-16T05:09:26.779Z,85.69
2018-04-16T05:10:26.797Z,86.17
2018-04-16T05:11:26.821Z,86.08
2018-04-16T05:12:26.848Z,86.08
2018-04-16T05:13:26.864Z,85.60
2018-04-16T05:14:26.888Z,86.17
2018-04-16T05:15:26.909Z,86.41
2018-04-16T05:16:26.938Z,86.70
2018-04-16T05:17:27.032Z,86.74
2018-04-16T05:18:26.985Z,86.36
2018-04-16T05:19:27.009Z,85.88
2018-04-16T05:20:27.024Z,85.50
2018-04-16T05:21:27.050Z,85.69
2018-04-16T05:22:27.062Z,85.84
2018-04-16T05:23:27.091Z,86.22
2018-04-16T05:24:27.113Z,86.32
2018-04-16T05:25:27.135Z,86.22
2018-04-16T05:26:27.153Z,87.08
2018-04-16T05:27:27.171Z,86.51
2018-04-16T05:28:27.198Z,86.27
2018-04-16T05:29:27.224Z,86.32
2018-04-16T05:30:27.239Z,86.51
2018-04-16T05:31:27.268Z,86.51
2018-04-16T05:32:27.332Z,86.55
2018-04-16T05:33:27.317Z,86.41
2018-04-16T05:34:27.335Z,86.27
2018-04-16T05:35:27.357Z,85.84
2018-04-16T05:36:27.375Z,86.08
2018-04-16T05:37:27.401Z,87.37
2018-04-16T05:38:27.426Z,87.76
2018-04-16T05:39:27.443Z,87.18
2018-04-16T05:40:27.472Z,86.80
2018-04-16T05:41:27.518Z,86.32
2018-04-16T05:42:27.542Z,86.70
2018-04-16T05:43:27.548Z,86.22
2018-04-16T05:44:27.567Z,86.70
2018-04-16T05:45:27.573Z,86.41
2018-04-16T05:46:27.597Z,86.22
2018-04-16T05:47:27.621Z,86.41
2018-04-16T05:48:27.641Z,86.70
2018-04-16T05:49:27.668Z,85.65
2018-04-16T05:50:27.701Z,86.22
2018-04-16T05:51:27.712Z,86.80
2018-04-16T05:52:27.745Z,86.04
2018-04-16T05:53:27.755Z,85.88
2018-04-16T05:54:27.771Z,85.69
2018-04-16T05:55:27.792Z,85.88
2018-04-16T05:56:27.828Z,86.22
2018-04-16T05:57:27.845Z,86.51
2018-04-16T05:58:27.870Z,86.32
2018-04-16T05:59:27.884Z,86.90
2018-04-16T06:00:27.942Z,86.90
2018-04-16T06:01:27.943Z,86.51
2018-04-16T06:02:27.948Z,86.51
2018-04-16T06:03:27.972Z,86.51
2018-04-16T06:04:27.995Z,86.61
2018-04-16T06:05:28.016Z,86.27
2018-04-16T06:06:28.042Z,86.36
2018-04-16T06:07:28.063Z,85.98
2018-04-16T06:08:28.084Z,85.50
2018-04-16T06:09:28.192Z,85.41
2018-04-16T06:10:28.126Z,85.21
2018-04-16T06:11:28.159Z,85.50
2018-04-16T06:12:28.171Z,85.50
2018-04-16T06:13:28.200Z,85.12
2018-04-16T06:14:28.218Z,85.06
2018-04-16T06:15:28.248Z,84.68
2018-04-16T06:16:28.299Z,84.78
2018-04-16T06:17:28.288Z,84.78
2018-04-16T06:18:28.306Z,85.16
2018-04-16T06:19:28.326Z,84.74
2018-04-16T06:20:28.353Z,85.31
2018-04-16T06:21:28.374Z,85.41
2018-04-16T06:22:28.401Z,85.50
2018-04-16T06:23:28.426Z,85.21
2018-04-16T06:24:28.435Z,84.68
2018-04-16T06:25:28.458Z,84.78
2018-04-16T06:26:28.536Z,85.35
2018-04-16T06:27:28.639Z,85.60
2018-04-16T06:28:28.530Z,85.41
2018-04-16T06:29:28.552Z,85.45
2018-04-16T06:30:28.572Z,85.60
2018-04-16T06:31:28.599Z,85.35
2018-04-16T06:32:28.617Z,85.06
2018-04-16T06:33:28.640Z,84.30
2018-04-16T06:34:28.665Z,85.31
2018-04-16T06:35:28.682Z,84.78
2018-04-16T06:36:28.701Z,84.20
2018-04-16T06:37:28.728Z,84.01
2018-04-16T06:38:28.753Z,84.11
2018-04-16T06:39:28.773Z,84.49
2018-04-16T06:40:28.794Z,84.11
2018-04-16T06:41:28.821Z,84.11
2018-04-16T06:42:28.875Z,83.44
2018-04-16T06:43:28.857Z,83.34
2018-04-16T06:44:28.884Z,84.01
2018-04-16T06:45:28.904Z,84.11
2018-04-16T06:46:28.933Z,83.72
2018-04-16T06:47:28.954Z,83.25
2018-04-16T06:48:28.971Z,83.53
2018-04-16T06:49:28.995Z,83.53
2018-04-16T06:50:29.021Z,82.86
2018-04-16T06:51:29.043Z,82.76
2018-04-16T06:52:29.060Z,82.52
2018-04-16T06:53:29.085Z,82.76
2018-04-16T06:54:29.113Z,83.53
2018-04-16T06:55:29.132Z,83.05
2018-04-16T06:56:29.155Z,82.96
2018-04-16T06:57:29.172Z,82.62
2018-04-16T06:58:29.206Z,83.25
2018-04-16T06:59:29.221Z,82.67
2018-04-16T07:00:29.241Z,83.34
2018-04-16T07:01:29.265Z,83.44
2018-04-16T07:02:29.286Z,83.63
2018-04-16T07:03:29.318Z,82.57
2018-04-16T07:04:29.332Z,82.67
2018-04-16T07:05:29.355Z,82.19
2018-04-16T07:06:29.375Z,82.48
2018-04-16T07:07:29.400Z,82.32
2018-04-16T07:08:29.428Z,81.75
2018-04-16T07:09:29.451Z,81.66
2018-04-16T07:10:29.466Z,81.27
2018-04-16T07:11:29.495Z,80.70
2018-04-16T07:12:29.506Z,80.79
2018-04-16T07:13:29.530Z,80.51
2018-04-16T07:14:29.553Z,80.89
2018-04-16T07:15:29.570Z,80.79
2018-04-16T07:16:29.608Z,79.83
2018-04-16T07:17:29.621Z,79.74
2018-04-16T07:18:29.644Z,79.45
2018-04-16T07:19:29.668Z,79.64
2018-04-16T07:20:29.689Z,79.74
2018-04-16T07:21:29.719Z,79.83
2018-04-16T07:22:29.732Z,79.36
2018-04-16T07:23:29.766Z,79.26
2018-04-16T07:24:29.777Z,79.55
2018-04-16T07:25:29.798Z,79.45
2018-04-16T07:26:29.823Z,78.97
2018-04-16T07:27:29.851Z,78.82
2018-04-16T07:28:29.864Z,78.53
2018-04-16T07:29:29.888Z,78.72
2018-04-16T07:30:29.917Z,78.72
2018-04-16T07:31:29.938Z,79.01
2018-04-16T07:32:29.959Z,79.11
2018-04-16T07:33:29.989Z,78.72
2018-04-16T07:34:30.004Z,78.63
2018-04-16T07:35:30.090Z,78.44
2018-04-16T07:36:30.055Z,79.30
2018-04-16T07:37:30.066Z,78.53
2018-04-16T07:38:30.110Z,78.82
2018-04-16T07:39:30.119Z,78.34
2018-04-16T07:40:30.140Z,78.34
2018-04-16T07:41:30.163Z,78.92
2018-04-16T07:42:30.196Z,79.01
2018-04-16T07:43:30.209Z,78.82
2018-04-16T07:44:30.229Z,78.25
2018-04-16T07:45:30.255Z,77.76
2018-04-16T07:46:30.277Z,77.09
2018-04-16T07:47:30.300Z,76.04
2018-04-16T07:48:30.318Z,75.65
2018-04-16T07:49:30.341Z,76.23
2018-04-16T07:50:30.366Z,76.62
2018-04-16T07:51:30.393Z,75.85
2018-04-16T07:52:30.414Z,75.65
2018-04-16T07:53:30.436Z,75.50
2018-04-16T07:54:30.462Z,74.89
2018-04-16T07:55:30.493Z,74.93
2018-04-16T07:56:30.506Z,75.21
2018-04-16T07:57:30.528Z,74.79
2018-04-16T07:58:30.560Z,74.51
2018-04-16T07:59:30.583Z,73.97
2018-04-16T08:00:30.593Z,73.77
2018-04-16T08:01:30.689Z,72.24
2018-04-16T08:02:30.649Z,72.05
2018-04-16T08:03:30.670Z,71.37
2018-04-16T08:04:30.691Z,71.57
2018-04-16T08:05:30.715Z,71.76
2018-04-16T08:06:30.741Z,71.57
2018-04-16T08:07:30.769Z,71.57
2018-04-16T08:08:30.785Z,71.47
2018-04-16T08:09:30.806Z,71.86
2018-04-16T08:10:30.826Z,71.47
2018-04-16T08:11:30.851Z,71.47
2018-04-16T08:12:30.985Z,71.28
2018-04-16T08:13:30.906Z,70.23
2018-04-16T08:14:30.929Z,70.70
2018-04-16T08:15:30.947Z,71.37
2018-04-16T08:16:30.966Z,71.76
2018-04-16T08:17:30.994Z,71.95
2018-04-16T08:18:31.016Z,71.47
2018-04-16T08:19:31.040Z,70.51
2018-04-16T08:20:31.079Z,70.51
2018-04-16T08:21:31.090Z,70.70
2018-04-16T08:22:31.114Z,70.99
2018-04-16T08:23:31.141Z,71.09
2018-04-16T08:24:31.157Z,69.93
2018-04-16T08:25:31.178Z,69.65
2018-04-16T08:26:31.208Z,69.84
2018-04-16T08:27:31.228Z,68.88
2018-04-16T08:28:31.259Z,68.40
2018-04-16T08:29:31.275Z,67.73
2018-04-16T08:30:31.298Z,67.38
2018-04-16T08:31:31.325Z,67.67
2018-04-16T08:32:31.348Z,67.38
2018-04-16T08:33:31.376Z,67.67
2018-04-16T08:34:31.395Z,68.34
2018-04-16T08:35:31.420Z,67.29
2018-04-16T08:36:31.444Z,65.75
2018-04-16T08:37:31.468Z,65.17
2018-04-16T08:38:31.490Z,64.12
2018-04-16T08:39:31.516Z,64.02
2018-04-16T08:40:31.541Z,63.25
2018-04-16T08:41:31.569Z,63.64
2018-04-16T08:42:31.584Z,63.54
2018-04-16T08:43:31.610Z,63.73
2018-04-16T08:44:31.632Z,63.64
2018-04-16T08:45:31.655Z,64.53
2018-04-16T08:46:31.680Z,64.69
2018-04-16T08:47:31.709Z,65.08
2018-04-16T08:48:31.731Z,64.53
2018-04-16T08:49:31.764Z,63.64
2018-04-16T08:50:31.782Z,63.48
2018-04-16T08:51:31.800Z,62.81
2018-04-16T08:52:31.827Z,62.90
2018-04-16T08:53:31.901Z,62.61
2018-04-16T08:54:31.876Z,62.04
2018-04-16T08:55:31.896Z,62.04
2018-04-16T08:56:31.920Z,62.19
2018-04-16T08:57:31.941Z,61.91
2018-04-16T08:58:31.968Z,62.01
2018-04-16T08:59:31.990Z,61.43
2018-04-16T09:00:32.021Z,61.46
2018-04-16T09:01:32.039Z,60.88
2018-04-16T09:02:32.063Z,60.69
2018-04-16T09:03:32.086Z,60.50
2018-04-16T09:04:32.115Z,60.50
2018-04-16T09:05:32.142Z,60.78
2018-04-16T09:06:32.171Z,60.98
2018-04-16T09:07:32.193Z,61.17
2018-04-16T09:08:32.210Z,61.36
2018-04-16T09:09:32.232Z,60.40
2018-04-16T09:10:32.250Z,60.40
2018-04-16T09:11:32.279Z,60.21
2018-04-16T09:12:32.300Z,60.31
2018-04-16T09:13:32.334Z,60.50
2018-04-16T09:14:32.352Z,60.88
2018-04-16T09:15:32.378Z,60.88
2018-04-16T09:16:32.394Z,59.95
2018-04-16T09:17:32.419Z,58.20
2018-04-16T09:18:32.450Z,57.33
2018-04-16T09:19:32.479Z,58.10
2018-04-16T09:20:32.500Z,57.52
2018-04-16T09:21:32.515Z,58.22
2018-04-16T09:22:32.544Z,59.54
2018-04-16T09:23:32.569Z,59.86
2018-04-16T09:24:32.593Z,59.66
2018-04-16T09:25:32.621Z,59.92
2018-04-16T09:26:32.645Z,59.09
2018-04-16T09:27:32.716Z,58.32
2018-04-16T09:28:32.685Z,57.55
2018-04-16T09:29:32.713Z,57.17
2018-04-16T09:30:32.736Z,55.32
2018-04-16T09:31:32.767Z,54.77
2018-04-16T09:32:32.792Z,55.34
2018-04-16T09:33:32.819Z,54.77
2018-04-16T09:34:32.836Z,55.05
2018-04-16T09:35:32.866Z,55.34
2018-04-16T09:36:32.883Z,53.30
2018-04-16T09:37:32.914Z,53.61
2018-04-16T09:38:32.938Z,54.00
2018-04-16T09:39:32.978Z,53.32
2018-04-16T09:40:32.982Z,53.61
2018-04-16T09:41:33.005Z,52.94
2018-04-16T09:42:33.032Z,52.55
2018-04-16T09:43:33.062Z,52.84
2018-04-16T09:44:33.084Z,53.03
2018-04-16T09:45:33.108Z,53.32
2018-04-16T09:46:33.143Z,53.42
2018-04-16T09:47:33.155Z,53.32
2018-04-16T09:48:33.177Z,52.87
2018-04-16T09:49:33.201Z,52.77
2018-04-16T09:50:33.241Z,52.29
2018-04-16T09:51:33.254Z,52.00
2018-04-16T09:52:33.275Z,52.20
2018-04-16T09:53:33.305Z,52.00
2018-04-16T09:54:33.347Z,52.00
2018-04-16T09:55:33.389Z,51.84
2018-04-16T09:56:33.404Z,52.10
2018-04-16T09:57:33.408Z,52.20
2018-04-16T09:58:33.480Z,50.95
2018-04-16T09:59:33.469Z,50.25
2018-04-16T10:00:33.521Z,51.72
2018-04-16T10:01:33.503Z,52.39
2018-04-16T10:02:33.520Z,51.91
2018-04-16T10:03:33.561Z,52.58
2018-04-16T10:04:33.571Z,52.10
2018-04-16T10:05:33.601Z,52.03
2018-04-16T10:06:33.628Z,51.72
2018-04-16T10:07:33.653Z,51.72
2018-04-16T10:08:33.685Z,52.00
2018-04-16T10:09:33.718Z,52.20
2018-04-16T10:10:33.733Z,51.81
2018-04-16T10:11:33.756Z,51.53
2018-04-16T10:12:33.779Z,50.85
2018-04-16T10:13:33.797Z,51.53
2018-04-16T10:14:33.822Z,51.07
2018-04-16T10:15:33.847Z,50.56
2018-04-16T10:16:33.874Z,50.30
2018-04-16T10:17:33.900Z,50.97
2018-04-16T10:18:33.937Z,50.49
2018-04-16T10:19:33.952Z,49.82
2018-04-16T10:20:33.992Z,50.49
2018-04-16T10:21:34.009Z,50.20
2018-04-16T10:22:34.033Z,50.01
2018-04-16T10:23:34.044Z,49.84
2018-04-16T10:24:34.078Z,49.74
2018-04-16T10:25:34.107Z,49.27
2018-04-16T10:26:34.147Z,49.05
2018-04-16T10:27:34.149Z,48.76
2018-04-16T10:28:34.179Z,48.66
2018-04-16T10:29:34.203Z,47.82
2018-04-16T10:30:34.238Z,46.19
2018-04-16T10:31:34.272Z,46.19
2018-04-16T10:32:34.282Z,45.42
2018-04-16T10:33:34.318Z,45.51
2018-04-16T10:34:34.326Z,45.80
2018-04-16T10:35:34.351Z,45.13
2018-04-16T10:36:34.379Z,45.22
2018-04-16T10:37:34.410Z,46.28
2018-04-16T10:38:34.446Z,46.28
2018-04-16T10:39:34.461Z,46.38
2018-04-16T10:40:34.491Z,45.32
2018-04-16T10:41:34.509Z,45.13
2018-04-16T10:42:34.537Z,45.73
2018-04-16T10:43:34.564Z,45.25
2018-04-16T10:44:34.599Z,44.38
2018-04-16T10:45:34.614Z,44.38
2018-04-16T10:46:34.636Z,44.28
2018-04-16T10:47:34.663Z,43.99
2018-04-16T10:48:34.698Z,44.07
2018-04-16T10:49:34.738Z,44.17
2018-04-16T10:50:34.742Z,44.38
2018-04-16T10:51:34.767Z,43.90
2018-04-16T10:52:34.838Z,44.19
2018-04-16T10:53:34.820Z,44.86
2018-04-16T10:54:34.842Z,43.61
2018-04-16T10:55:34.913Z,43.13
2018-04-16T10:56:34.896Z,43.03
2018-04-16T10:57:34.920Z,43.11
2018-04-16T10:58:34.969Z,43.32
2018-04-16T10:59:34.970Z,43.61
2018-04-16T11:00:35.000Z,43.30
2018-04-16T11:01:35.028Z,42.91
2018-04-16T11:02:35.049Z,43.20
2018-04-16T11:03:35.084Z,43.88
2018-04-16T11:04:35.111Z,44.45
2018-04-16T11:05:35.140Z,45.13
2018-04-16T11:06:35.163Z,45.70
2018-04-16T11:07:35.182Z,46.19
2018-04-16T11:08:35.212Z,44.65
2018-04-16T11:09:35.255Z,45.03
2018-04-16T11:10:35.261Z,45.13
2018-04-16T11:11:35.295Z,45.22
2018-04-16T11:12:35.317Z,45.32
2018-04-16T11:13:35.343Z,44.26
2018-04-16T11:14:35.374Z,45.03
2018-04-16T11:15:35.397Z,45.03
2018-04-16T11:16:35.422Z,45.42
2018-04-16T11:17:35.450Z,44.65
2018-04-16T11:18:35.472Z,43.78
2018-04-16T11:19:35.502Z,43.40
2018-04-16T11:20:35.527Z,44.26
2018-04-16T11:21:35.548Z,44.28
2018-04-16T11:22:35.580Z,45.34
2018-04-16T11:23:35.608Z,44.76
2018-04-16T11:24:35.629Z,44.28
2018-04-16T11:25:35.704Z,43.90
2018-04-16T11:26:35.684Z,43.23
2018-04-16T11:27:35.705Z,43.71
2018-04-16T11:28:35.732Z,43.51
2018-04-16T11:29:35.762Z,43.03
2018-04-16T11:30:35.794Z,43.32
2018-04-16T11:31:35.813Z,43.41
2018-04-16T11:32:35.910Z,43.41
2018-04-16T11:33:35.874Z,43.71
2018-04-16T11:34:35.901Z,43.99
2018-04-16T11:35:35.928Z,44.19
2018-04-16T11:36:35.953Z,44.86
2018-04-16T11:37:35.972Z,45.05
2018-04-16T11:38:36.000Z,44.67
2018-04-16T11:39:36.024Z,44.38
2018-04-16T11:40:36.056Z,44.89
2018-04-16T11:41:36.077Z,44.21
2018-04-16T11:42:36.106Z,44.11
2018-04-16T11:43:36.138Z,44.21
2018-04-16T11:44:36.163Z,44.02
2018-04-16T11:45:36.215Z,43.63
2018-04-16T11:46:36.212Z,44.13
2018-04-16T11:47:36.247Z,44.13
2018-04-16T11:48:36.261Z,45.00
2018-04-16T11:49:36.296Z,43.94
2018-04-16T11:50:36.346Z,43.37
2018-04-16T11:51:36.343Z,43.37
2018-04-16T11:52:36.369Z,43.17
2018-04-16T11:53:36.393Z,42.88
2018-04-16T11:54:36.425Z,43.48
2018-04-16T11:55:36.451Z,42.97
2018-04-16T11:56:36.475Z,43.07
2018-04-16T11:57:36.500Z,43.29
2018-04-16T11:58:36.543Z,43.00
2018-04-16T11:59:36.550Z,42.90
2018-04-16T12:00:36.583Z,41.72
2018-04-16T12:01:36.608Z,42.13
2018-04-16T12:02:36.710Z,41.72
2018-04-16T12:03:36.665Z,41.34
2018-04-16T12:04:36.719Z,41.24
2018-04-16T12:05:36.716Z,41.44
2018-04-16T12:06:36.751Z,41.92
2018-04-16T12:07:36.786Z,42.30
2018-04-16T12:08:36.795Z,42.59
2018-04-16T12:09:36.823Z,42.11
2018-04-16T12:10:36.850Z,42.21
2018-04-16T12:11:36.871Z,41.03
2018-04-16T12:12:36.910Z,41.32
2018-04-16T12:13:36.935Z,41.01
2018-04-16T12:14:36.957Z,41.68
2018-04-16T12:15:36.984Z,42.19
2018-04-16T12:16:37.040Z,43.03
2018-04-16T12:17:37.044Z,43.54
2018-04-16T12:18:37.084Z,43.73
2018-04-16T12:19:37.098Z,43.44
2018-04-16T12:20:37.120Z,43.44
2018-04-16T12:21:37.145Z,43.07
2018-04-16T12:22:37.179Z,42.40
2018-04-16T12:23:37.195Z,42.52
2018-04-16T12:24:37.224Z,42.42
2018-04-16T12:25:37.275Z,42.35
2018-04-16T12:26:37.277Z,41.46
2018-04-16T12:27:37.312Z,41.96
2018-04-16T12:28:37.339Z,42.25
2018-04-16T12:29:37.359Z,41.67
2018-04-16T12:30:37.397Z,41.75
2018-04-16T12:31:37.416Z,42.25
2018-04-16T12:32:37.448Z,42.25
2018-04-16T12:33:37.474Z,42.27
2018-04-16T12:34:37.496Z,41.86
2018-04-16T12:35:37.532Z,42.35
2018-04-16T12:36:37.557Z,41.67
2018-04-16T12:37:37.578Z,41.77
2018-04-16T12:38:37.624Z,41.48
2018-04-16T12:39:37.631Z,40.80
2018-04-16T12:40:37.664Z,40.44
2018-04-16T12:41:37.687Z,40.92
2018-04-16T12:42:37.716Z,39.95
2018-04-16T12:43:37.745Z,40.07
2018-04-16T12:44:37.772Z,40.09
2018-04-16T12:45:37.797Z,39.90
2018-04-16T12:46:37.830Z,39.34
2018-04-16T12:47:37.871Z,38.37
2018-04-16T12:48:37.880Z,38.93
2018-04-16T12:49:37.913Z,39.51
2018-04-16T12:50:37.942Z,39.61
2018-04-16T12:51:37.987Z,39.90
2018-04-16T12:52:37.999Z,41.13